Fort Nelson Airport, British Columbia

Past 24 Hour Conditions

This table is a summary of hourly weather conditions for the past 24 hours. This summary includes the following parameters: temperature, humidity, dew point, wind speed and direction, air pressure, visibility and/or wind chill and humidex.
Date / Time
(PDT)
Conditions Temp (°F) Humidity (%) Dew Point (°F) Wind (mph) Pressure (inches) Visibility (miles)
20 August 2014
11:00 Mostly Cloudy 55 63 42 N 2 30.1 20
10:00 Mostly Cloudy 53 68 43 NNW 3 30.1 20
9:00 Mostly Cloudy 51 71 42 NW 3 30.1 20
8:00 Mostly Cloudy 50 78 43 NW 6 30.1 30
7:00 Mostly Cloudy 48   86 44 WNW 4 30.0 30
6:00 Mostly Cloudy 48   87 44 WNW 4 30.0 30
5:00 Mostly Cloudy 48   87 44 NW 5 30.0 15
4:00 Cloudy 48   88 45 NW 6 30.0 15
3:00 Cloudy 50 89 46 NNW 5 30.0 15
2:00 Cloudy 51 88 47 NNW 7 30.0 15
1:00 Cloudy 51 89 48 NW 6 29.9 15
00:00 Cloudy 52 90 49 NW 5 29.9 30
19 August 2014
23:00 Light Rain 52 91 50 NW 5 29.9 15
22:00 Light Rain 53 91 50 NNW 4 29.9 10
21:00 Light Rain 53 90 51 NNW 6 29.9 10
20:00 Mostly Cloudy 55 90 52 NNW 5 29.9 15
19:00 Mostly Cloudy 56 85 52 NNE 5 29.9 15
18:00 Mostly Cloudy 56 83 51 N 8 29.9 15
17:00 Light Rain 59   80 53 NW 8 29.8 10
16:00 Mostly Cloudy 57 82 52 WNW 7 29.8 10
15:00 Light Rain 54 92 52 NW 4 29.8 15
14:00 Light Rain 55 90 52 WNW 5 29.8 10
13:00 Light Rain 55 88 51 WNW 8 29.8 10
12:00 Mostly Cloudy 59   67 48 NW 9 29.8 15
11:00 Mostly Cloudy 59   67 48 WNW 9 29.8 30
N/A
Not available
 ↑ 
Highest temperature
 ↓ 
Lowest temperature

If you require additional historical weather information, please visit Climate Data Online.